Time,TemperatureF,DewpointF,PressureIn,WindDirection,WindDirectionDegrees,WindSpeedMPH,WindSpeedGustMPH,Humidity,HourlyPrecipIn,Conditions,Clouds,dailyrainin,SolarRadiationWatts/m^2,SoftwareType,DateUTC
2013-08-16 00:04:00,62.9,45.5,30.59,NNE,14,3.0,4.0,53,0.00,,,0.00,0.00,VWS V14.00,2013-08-16 06:04:00,
2013-08-16 00:09:00,62.4,44.6,30.58,NNE,14,0.0,1.0,52,0.00,,,0.00,0.00,VWS V14.00,2013-08-16 06:09:00,
2013-08-16 00:14:00,61.8,44.0,30.58,NNE,14,0.0,4.0,52,0.00,,,0.00,0.00,VWS V14.00,2013-08-16 06:14:00,
2013-08-16 00:19:00,61.5,43.2,30.58,NNE,14,0.0,4.0,51,0.00,,,0.00,0.00,VWS V14.00,2013-08-16 06:19:00,
2013-08-16 00:24:00,61.4,44.1,30.59,NNE,14,0.0,0.0,53,0.00,,,0.00,0.00,VWS V14.00,2013-08-16 06:24:00,
2013-08-16 00:29:00,61.5,43.2,30.58,NNE,14,0.0,2.0,51,0.00,,,0.00,0.00,VWS V14.00,2013-08-16 06:29:00,
2013-08-16 00:34:00,61.6,42.3,30.58,NNE,14,0.0,2.0,49,0.00,,,0.00,0.00,VWS V14.00,2013-08-16 06:34:00,
2013-08-16 00:39:00,61.8,44.0,30.58,NNE,14,2.0,2.0,52,0.00,,,0.00,0.00,VWS V14.00,2013-08-16 06:39:00,
2013-08-16 00:44:00,61.7,41.8,30.58,NNE,16,0.0,4.0,48,0.00,,,0.00,0.00,VWS V14.00,2013-08-16 06:44:00,
2013-08-16 00:49:00,61.7,42.4,30.58,NNE,15,0.0,4.0,49,0.00,,,0.00,0.00,VWS V14.00,2013-08-16 06:49:00,
2013-08-16 00:54:00,61.8,40.3,30.58,NNE,16,2.0,2.0,45,0.00,,,0.00,0.00,VWS V14.00,2013-08-16 06:54:00,
2013-08-16 00:59:00,62.3,40.7,30.58,NNE,17,0.0,3.0,45,0.00,,,0.00,0.00,VWS V14.00,2013-08-16 06:59:00,
2013-08-16 01:04:00,62.8,40.6,30.58,NNE,17,0.0,3.0,44,0.00,,,0.00,0.00,VWS V14.00,2013-08-16 07:04:00,
2013-08-16 01:09:00,63.2,42.1,30.57,NNE,17,0.0,0.0,46,0.00,,,0.00,0.00,VWS V14.00,2013-08-16 07:09:00,
2013-08-16 01:14:00,63.2,43.7,30.57,NNE,17,0.0,0.0,49,0.00,,,0.00,0.00,VWS V14.00,2013-08-16 07:14:00,
2013-08-16 01:19:00,63.5,43.5,30.56,NNE,21,0.0,3.0,48,0.00,,,0.00,0.00,VWS V14.00,2013-08-16 07:19:00,
2013-08-16 01:24:00,63.0,43.0,30.57,NNE,21,0.0,0.0,48,0.00,,,0.00,0.00,VWS V14.00,2013-08-16 07:24:00,
2013-08-16 01:29:00,62.6,39.8,30.57,NNE,21,0.0,0.0,43,0.00,,,0.00,0.00,VWS V14.00,2013-08-16 07:29:00,
2013-08-16 01:34:00,62.7,39.9,30.57,NNE,21,0.0,1.0,43,0.00,,,0.00,0.00,VWS V14.00,2013-08-16 07:34:00,
2013-08-16 01:39:00,62.7,42.8,30.57,NNE,21,0.0,0.0,48,0.00,,,0.00,0.00,VWS V14.00,2013-08-16 07:39:00,
2013-08-16 01:44:00,62.5,44.7,30.57,NNE,21,0.0,0.0,52,0.00,,,0.00,0.00,VWS V14.00,2013-08-16 07:44:00,
2013-08-16 01:49:00,62.2,45.4,30.57,NNE,21,0.0,1.0,54,0.00,,,0.00,0.00,VWS V14.00,2013-08-16 07:49:00,
2013-08-16 01:54:00,61.5,44.7,30.56,NNE,21,0.0,0.0,54,0.00,,,0.00,0.00,VWS V14.00,2013-08-16 07:54:00,
2013-08-16 01:59:00,61.1,45.8,30.57,NNE,21,0.0,0.0,57,0.00,,,0.00,0.00,VWS V14.00,2013-08-16 07:59:00,
2013-08-16 02:04:00,60.9,42.2,30.58,NNE,21,0.0,0.0,50,0.00,,,0.00,0.00,VWS V14.00,2013-08-16 08:04:00,
2013-08-16 02:09:00,60.4,42.2,30.56,NNE,21,0.0,0.0,51,0.00,,,0.00,0.00,VWS V14.00,2013-08-16 08:09:00,
2013-08-16 02:14:00,60.1,44.8,30.56,NNE,21,0.0,0.0,57,0.00,,,0.00,0.00,VWS V14.00,2013-08-16 08:14:00,
2013-08-16 02:19:00,59.6,41.5,30.56,NNE,21,0.0,1.0,51,0.00,,,0.00,0.00,VWS V14.00,2013-08-16 08:19:00,
2013-08-16 02:24:00,59.5,40.9,30.56,NNE,21,0.0,0.0,50,0.00,,,0.00,0.00,VWS V14.00,2013-08-16 08:24:00,
2013-08-16 02:29:00,59.4,40.8,30.56,NNE,21,0.0,0.0,50,0.00,,,0.00,0.00,VWS V14.00,2013-08-16 08:29:00,
2013-08-16 02:35:00,59.5,40.9,30.56,NNE,21,0.0,1.0,50,0.00,,,0.00,0.00,VWS V14.00,2013-08-16 08:35:00,
2013-08-16 02:40:00,59.6,40.4,30.56,NNE,21,0.0,0.0,49,0.00,,,0.00,0.00,VWS V14.00,2013-08-16 08:40:00,
2013-08-16 02:45:00,59.6,39.4,30.57,NNE,21,0.0,0.0,47,0.00,,,0.00,0.00,VWS V14.00,2013-08-16 08:45:00,
2013-08-16 02:50:00,59.9,40.7,30.57,NNE,21,0.0,0.0,49,0.00,,,0.00,0.00,VWS V14.00,2013-08-16 08:50:00,
2013-08-16 02:55:00,60.0,42.8,30.57,NNE,21,0.0,0.0,53,0.00,,,0.00,0.00,VWS V14.00,2013-08-16 08:55:00,
2013-08-16 03:00:00,59.9,39.1,30.57,NNE,21,0.0,0.0,46,0.00,,,0.00,0.00,VWS V14.00,2013-08-16 09:00:00,
2013-08-16 03:05:00,60.1,40.9,30.57,NNE,21,0.0,0.0,49,0.00,,,0.00,0.00,VWS V14.00,2013-08-16 09:05:00,
2013-08-16 03:10:00,60.1,40.4,30.54,NNE,21,0.0,0.0,48,0.00,,,0.00,0.00,VWS V14.00,2013-08-16 09:10:00,
2013-08-16 03:15:00,60.0,40.3,30.54,NNE,21,0.0,1.0,48,0.00,,,0.00,0.00,VWS V14.00,2013-08-16 09:15:00,
2013-08-16 03:20:00,60.1,40.9,30.54,NNE,21,0.0,1.0,49,0.00,,,0.00,0.00,VWS V14.00,2013-08-16 09:20:00,
2013-08-16 03:25:00,60.3,41.1,30.54,NNE,21,0.0,0.0,49,0.00,,,0.00,0.00,VWS V14.00,2013-08-16 09:25:00,
2013-08-16 03:30:00,60.1,40.4,30.55,NNE,21,0.0,3.0,48,0.00,,,0.00,0.00,VWS V14.00,2013-08-16 09:30:00,
2013-08-16 03:35:00,60.0,40.3,30.54,NNE,21,0.0,3.0,48,0.00,,,0.00,0.00,VWS V14.00,2013-08-16 09:35:00,
2013-08-16 03:40:00,60.1,39.8,30.55,NNE,21,0.0,0.0,47,0.00,,,0.00,0.00,VWS V14.00,2013-08-16 09:40:00,
2013-08-16 03:45:00,60.1,40.4,30.55,NNE,21,0.0,0.0,48,0.00,,,0.00,0.00,VWS V14.00,2013-08-16 09:45:00,
2013-08-16 03:50:00,60.0,40.3,30.55,NNE,21,0.0,0.0,48,0.00,,,0.00,0.00,VWS V14.00,2013-08-16 09:50:00,
2013-08-16 03:55:00,60.0,40.3,30.55,NNE,21,0.0,0.0,48,0.00,,,0.00,0.00,VWS V14.00,2013-08-16 09:55:00,
2013-08-16 04:00:00,59.8,40.6,30.56,NNE,21,0.0,0.0,49,0.00,,,0.00,0.00,VWS V14.00,2013-08-16 10:00:00,
2013-08-16 04:05:00,59.5,41.4,30.55,NNE,21,0.0,0.0,51,0.00,,,0.00,0.00,VWS V14.00,2013-08-16 10:05:00,
2013-08-16 04:10:00,59.3,40.7,30.56,NNE,21,0.0,0.0,50,0.00,,,0.00,0.00,VWS V14.00,2013-08-16 10:10:00,
2013-08-16 04:15:00,59.0,43.3,30.57,NNE,21,0.0,0.0,56,0.00,,,0.00,0.00,VWS V14.00,2013-08-16 10:15:00,
2013-08-16 04:20:00,59.0,44.3,30.56,NNE,21,0.0,0.0,58,0.00,,,0.00,0.00,VWS V14.00,2013-08-16 10:20:00,
2013-08-16 04:25:00,58.6,40.5,30.56,NNE,21,0.0,0.0,51,0.00,,,0.00,0.00,VWS V14.00,2013-08-16 10:25:00,
2013-08-16 04:30:00,58.4,42.3,30.56,NNE,21,0.0,0.0,55,0.00,,,0.00,0.00,VWS V14.00,2013-08-16 10:30:00,
2013-08-16 04:39:00,58.0,40.5,30.57,NNE,21,0.0,0.0,52,0.00,,,0.00,0.00,VWS V14.00,2013-08-16 10:39:00,
2013-08-16 04:44:00,57.8,39.8,30.57,NNE,21,0.0,0.0,51,0.00,,,0.00,0.00,VWS V14.00,2013-08-16 10:44:00,
2013-08-16 04:45:00,57.7,43.5,30.56,NNE,21,0.0,0.0,59,0.00,,,0.00,0.00,VWS V14.00,2013-08-16 10:45:00,
2013-08-16 04:49:00,57.8,40.8,30.57,NNE,21,0.0,0.0,53,0.00,,,0.00,0.00,VWS V14.00,2013-08-16 10:49:00,
2013-08-16 04:54:00,57.6,43.4,30.56,NNE,21,0.0,0.0,59,0.00,,,0.00,0.00,VWS V14.00,2013-08-16 10:54:00,
2013-08-16 04:59:00,57.2,42.6,30.58,NNE,21,0.0,2.0,58,0.00,,,0.00,0.00,VWS V14.00,2013-08-16 10:59:00,
2013-08-16 05:00:00,55.8,42.6,30.58,NNE,21,0.0,2.0,61,0.00,,,0.00,0.00,VWS V14.00,2013-08-16 11:00:00,
2013-08-16 05:04:00,56.3,42.2,30.58,NNE,21,0.0,2.0,59,0.00,,,0.00,0.00,VWS V14.00,2013-08-16 11:04:00,
2013-08-16 05:09:00,55.7,42.0,30.59,NNE,21,0.0,0.0,60,0.00,,,0.00,0.00,VWS V14.00,2013-08-16 11:09:00,
2013-08-16 05:14:00,54.9,42.6,30.58,NNE,21,0.0,0.0,63,0.00,,,0.00,0.00,VWS V14.00,2013-08-16 11:14:00,
2013-08-16 05:15:00,53.9,39.9,30.60,NNE,21,0.0,0.0,59,0.00,,,0.00,0.00,VWS V14.00,2013-08-16 11:15:00,
2013-08-16 05:19:00,54.2,41.9,30.60,NNE,21,0.0,0.0,63,0.00,,,0.00,0.00,VWS V14.00,2013-08-16 11:19:00,
2013-08-16 05:24:00,53.8,39.4,30.60,NNE,21,0.0,0.0,58,0.00,,,0.00,0.00,VWS V14.00,2013-08-16 11:24:00,
2013-08-16 05:29:00,53.8,40.7,30.60,NNE,21,0.0,0.0,61,0.00,,,0.00,0.00,VWS V14.00,2013-08-16 11:29:00,
2013-08-16 05:30:00,54.1,38.3,30.60,NNE,21,0.0,0.0,55,0.00,,,0.00,0.00,VWS V14.00,2013-08-16 11:30:00,
2013-08-16 05:34:00,53.8,38.0,30.60,NNE,21,0.0,0.0,55,0.00,,,0.00,0.00,VWS V14.00,2013-08-16 11:34:00,
2013-08-16 05:39:00,54.2,37.9,30.60,NNE,21,0.0,0.0,54,0.00,,,0.00,0.00,VWS V14.00,2013-08-16 11:39:00,
2013-08-16 05:44:00,54.6,41.4,30.60,NNE,21,0.0,0.0,61,0.00,,,0.00,0.00,VWS V14.00,2013-08-16 11:44:00,
2013-08-16 05:45:00,54.8,38.5,30.61,NNE,21,0.0,0.0,54,0.00,,,0.00,0.00,VWS V14.00,2013-08-16 11:45:00,
2013-08-16 05:49:00,54.7,38.9,30.60,NNE,21,0.0,0.0,55,0.00,,,0.00,0.00,VWS V14.00,2013-08-16 11:49:00,
2013-08-16 05:54:00,54.9,39.5,30.61,NNE,21,0.0,0.0,56,0.00,,,0.00,0.00,VWS V14.00,2013-08-16 11:54:00,
2013-08-16 05:59:00,55.1,38.3,30.61,NNE,21,0.0,0.0,53,0.00,,,0.00,0.00,VWS V14.00,2013-08-16 11:59:00,
2013-08-16 06:00:00,55.8,39.9,30.60,NNE,21,0.0,0.0,55,0.00,,,0.00,0.00,VWS V14.00,2013-08-16 12:00:00,
2013-08-16 06:04:00,55.5,38.7,30.60,NNE,21,0.0,0.0,53,0.00,,,0.00,0.00,VWS V14.00,2013-08-16 12:04:00,
2013-08-16 06:09:00,55.8,39.9,30.61,NNE,21,0.0,0.0,55,0.00,,,0.00,0.00,VWS V14.00,2013-08-16 12:09:00,
2013-08-16 06:14:00,55.9,38.0,30.61,NNE,21,0.0,0.0,51,0.00,,,0.00,0.00,VWS V14.00,2013-08-16 12:14:00,
2013-08-16 06:15:00,56.1,40.2,30.61,NNE,21,1.0,3.0,55,0.00,,,0.00,0.00,VWS V14.00,2013-08-16 12:15:00,
2013-08-16 06:19:00,56.1,38.7,30.62,NNE,21,0.0,0.0,52,0.00,,,0.00,0.00,VWS V14.00,2013-08-16 12:19:00,
2013-08-16 06:24:00,56.1,41.5,30.62,NNE,21,1.0,2.0,58,0.00,,,0.00,0.00,VWS V14.00,2013-08-16 12:24:00,
2013-08-16 06:29:00,55.7,40.7,30.62,NNE,21,0.0,2.0,57,0.00,,,0.00,0.00,VWS V14.00,2013-08-16 12:29:00,
2013-08-16 06:30:00,55.0,41.8,30.63,NNE,21,0.0,2.0,61,0.00,,,0.00,0.00,VWS V14.00,2013-08-16 12:30:00,
2013-08-16 06:34:00,55.5,40.5,30.62,NNE,21,0.0,2.0,57,0.00,,,0.00,0.00,VWS V14.00,2013-08-16 12:34:00,
2013-08-16 06:39:00,54.9,41.7,30.63,NNE,21,0.0,0.0,61,0.00,,,0.00,0.00,VWS V14.00,2013-08-16 12:39:00,
2013-08-16 06:44:00,54.4,40.8,30.64,NNE,21,0.0,0.0,60,0.00,,,0.00,5.00,VWS V14.00,2013-08-16 12:44:00,
2013-08-16 06:45:00,53.3,40.6,30.65,NNE,21,0.0,0.0,62,0.00,,,0.00,9.00,VWS V14.00,2013-08-16 12:45:00,
2013-08-16 06:49:00,53.9,42.0,30.64,NNE,21,0.0,0.0,64,0.00,,,0.00,7.00,VWS V14.00,2013-08-16 12:49:00,
2013-08-16 06:54:00,53.2,42.2,30.64,NNE,21,0.0,0.0,66,0.00,,,0.00,11.00,VWS V14.00,2013-08-16 12:54:00,
2013-08-16 07:01:00,52.7,42.5,30.64,NNE,21,0.0,0.0,68,0.00,,,0.00,14.00,VWS V14.00,2013-08-16 13:01:00,
2013-08-16 07:06:00,52.6,42.0,30.64,NNE,21,0.0,0.0,67,0.00,,,0.00,18.00,VWS V14.00,2013-08-16 13:06:00,
2013-08-16 07:11:00,52.6,40.4,30.67,NNE,21,0.0,1.0,63,0.00,,,0.00,23.00,VWS V14.00,2013-08-16 13:11:00,
2013-08-16 07:16:00,52.6,41.2,30.68,NNE,21,0.0,1.0,65,0.00,,,0.00,25.00,VWS V14.00,2013-08-16 13:16:00,
2013-08-16 07:21:00,52.8,40.6,30.68,NNE,21,0.0,1.0,63,0.00,,,0.00,28.00,VWS V14.00,2013-08-16 13:21:00,
2013-08-16 07:26:00,52.9,42.3,30.68,NNE,21,0.0,2.0,67,0.00,,,0.00,32.00,VWS V14.00,2013-08-16 13:26:00,
2013-08-16 07:31:00,53.0,42.3,30.68,NNE,21,0.0,2.0,67,0.00,,,0.00,35.00,VWS V14.00,2013-08-16 13:31:00,
2013-08-16 07:36:00,53.0,39.9,30.68,NNE,21,0.0,2.0,61,0.00,,,0.00,39.00,VWS V14.00,2013-08-16 13:36:00,
2013-08-16 07:41:00,53.4,39.0,30.69,NNE,21,0.0,1.0,58,0.00,,,0.00,40.00,VWS V14.00,2013-08-16 13:41:00,
2013-08-16 07:46:00,54.0,42.5,30.67,NNE,21,0.0,2.0,65,0.00,,,0.00,44.00,VWS V14.00,2013-08-16 13:46:00,
2013-08-16 07:51:00,54.4,40.0,30.68,NNE,21,0.0,2.0,58,0.00,,,0.00,46.00,VWS V14.00,2013-08-16 13:51:00,
2013-08-16 07:56:00,54.9,40.0,30.67,NNE,21,0.0,3.0,57,0.00,,,0.00,47.00,VWS V14.00,2013-08-16 13:56:00,
2013-08-16 08:01:00,55.4,40.4,30.67,NNE,21,0.0,3.0,57,0.00,,,0.00,49.00,VWS V14.00,2013-08-16 14:01:00,
2013-08-16 08:06:00,55.8,41.3,30.67,NNE,21,0.0,3.0,58,0.00,,,0.00,53.00,VWS V14.00,2013-08-16 14:06:00,
2013-08-16 08:11:00,56.0,41.0,30.69,NNE,21,0.0,1.0,57,0.00,,,0.00,56.00,VWS V14.00,2013-08-16 14:11:00,
2013-08-16 08:16:00,56.2,40.3,30.69,NNE,22,2.0,2.0,55,0.00,,,0.00,72.00,VWS V14.00,2013-08-16 14:16:00,
2013-08-16 08:21:00,56.5,40.1,30.69,NNE,22,0.0,3.0,54,0.00,,,0.00,128.00,VWS V14.00,2013-08-16 14:21:00,
2013-08-16 08:26:00,56.8,39.9,30.69,NNE,22,0.0,0.0,53,0.00,,,0.00,211.00,VWS V14.00,2013-08-16 14:26:00,
2013-08-16 08:31:00,57.1,41.1,30.69,NNE,22,0.0,0.0,55,0.00,,,0.00,223.00,VWS V14.00,2013-08-16 14:31:00,
2013-08-16 08:36:00,57.3,42.2,30.70,NNE,22,0.0,0.0,57,0.00,,,0.00,236.00,VWS V14.00,2013-08-16 14:36:00,
2013-08-16 08:41:00,57.7,41.7,30.68,NNE,22,0.0,0.0,55,0.00,,,0.00,250.00,VWS V14.00,2013-08-16 14:41:00,
2013-08-16 08:46:00,58.2,43.5,30.69,NNE,22,0.0,0.0,58,0.00,,,0.00,172.00,VWS V14.00,2013-08-16 14:46:00,
2013-08-16 08:51:00,58.8,45.8,30.68,NNE,22,0.0,2.0,62,0.00,,,0.00,111.00,VWS V14.00,2013-08-16 14:51:00,
2013-08-16 08:56:00,59.0,45.6,30.68,NNE,22,0.0,0.0,61,0.00,,,0.00,79.00,VWS V14.00,2013-08-16 14:56:00,
2013-08-16 09:01:00,59.0,45.6,30.68,NNE,22,0.0,0.0,61,0.00,,,0.00,74.00,VWS V14.00,2013-08-16 15:01:00,
2013-08-16 09:06:00,59.0,44.3,30.69,NNE,22,0.0,0.0,58,0.00,,,0.00,74.00,VWS V14.00,2013-08-16 15:06:00,
2013-08-16 09:11:00,59.0,44.7,30.71,NNE,22,0.0,0.0,59,0.00,,,0.00,77.00,VWS V14.00,2013-08-16 15:11:00,
2013-08-16 09:16:00,59.1,43.4,30.72,NNE,22,0.0,1.0,56,0.00,,,0.00,79.00,VWS V14.00,2013-08-16 15:16:00,
2013-08-16 09:21:00,59.4,44.2,30.71,NNE,22,0.0,1.0,57,0.00,,,0.00,97.00,VWS V14.00,2013-08-16 15:21:00,
2013-08-16 09:26:00,59.7,41.0,30.71,NNE,22,0.0,0.0,50,0.00,,,0.00,83.00,VWS V14.00,2013-08-16 15:26:00,
2013-08-16 09:31:00,60.2,42.0,30.71,NNE,22,0.0,1.0,51,0.00,,,0.00,95.00,VWS V14.00,2013-08-16 15:31:00,
2013-08-16 09:36:00,60.7,45.4,30.70,NNE,22,0.0,3.0,57,0.00,,,0.00,86.00,VWS V14.00,2013-08-16 15:36:00,
2013-08-16 09:41:00,61.3,45.0,30.70,NNE,22,0.0,1.0,55,0.00,,,0.00,413.00,VWS V14.00,2013-08-16 15:41:00,
2013-08-16 09:46:00,61.9,45.1,30.70,NNE,22,0.0,1.0,54,0.00,,,0.00,434.00,VWS V14.00,2013-08-16 15:46:00,
2013-08-16 09:51:00,62.5,42.6,30.70,NNE,22,0.0,1.0,48,0.00,,,0.00,385.00,VWS V14.00,2013-08-16 15:51:00,
2013-08-16 09:56:00,63.1,42.6,30.69,NNE,22,0.0,0.0,47,0.00,,,0.00,457.00,VWS V14.00,2013-08-16 15:56:00,
2013-08-16 10:01:00,63.7,42.5,30.69,NNE,22,0.0,0.0,46,0.00,,,0.00,473.00,VWS V14.00,2013-08-16 16:01:00,
2013-08-16 10:06:00,64.3,41.3,30.69,NNE,22,0.0,0.0,43,0.00,,,0.00,492.00,VWS V14.00,2013-08-16 16:06:00,
2013-08-16 10:11:00,65.4,45.8,30.69,North,350,0.0,1.0,49,0.00,,,0.00,503.00,VWS V14.00,2013-08-16 16:11:00,
2013-08-16 10:16:00,66.1,46.9,30.69,North,351,0.0,1.0,50,0.00,,,0.00,512.00,VWS V14.00,2013-08-16 16:16:00,
2013-08-16 10:21:00,66.8,45.9,30.69,North,351,0.0,1.0,47,0.00,,,0.00,527.00,VWS V14.00,2013-08-16 16:21:00,
2013-08-16 10:26:00,67.5,45.4,30.69,North,350,0.0,1.0,45,0.00,,,0.00,531.00,VWS V14.00,2013-08-16 16:26:00,
2013-08-16 10:31:00,68.4,43.8,30.68,North,351,0.0,1.0,41,0.00,,,0.00,550.00,VWS V14.00,2013-08-16 16:31:00,
2013-08-16 10:36:00,69.5,46.7,30.68,North,350,0.0,5.0,44,0.00,,,0.00,564.00,VWS V14.00,2013-08-16 16:36:00,
2013-08-16 10:41:00,70.4,45.6,30.67,North,350,0.0,0.0,41,0.00,,,0.00,582.00,VWS V14.00,2013-08-16 16:41:00,
2013-08-16 10:46:00,71.3,45.1,30.67,North,350,0.0,1.0,39,0.00,,,0.00,591.00,VWS V14.00,2013-08-16 16:46:00,
2013-08-16 10:51:00,71.9,44.9,30.66,North,350,0.0,3.0,38,0.00,,,0.00,603.00,VWS V14.00,2013-08-16 16:51:00,
2013-08-16 10:56:00,72.5,44.1,30.67,North,350,0.0,1.0,36,0.00,,,0.00,608.00,VWS V14.00,2013-08-16 16:56:00,
2013-08-16 11:01:00,73.2,43.9,30.67,North,350,0.0,2.0,35,0.00,,,0.00,619.00,VWS V14.00,2013-08-16 17:01:00,
2013-08-16 11:06:00,73.9,48.1,30.66,North,350,0.0,2.0,40,0.00,,,0.00,629.00,VWS V14.00,2013-08-16 17:06:00,
2013-08-16 11:11:00,74.2,46.3,30.69,North,350,0.0,1.0,37,0.00,,,0.00,643.00,VWS V14.00,2013-08-16 17:11:00,
2013-08-16 11:16:00,74.8,45.3,30.68,North,350,0.0,3.0,35,0.00,,,0.00,650.00,VWS V14.00,2013-08-16 17:16:00,
2013-08-16 11:21:00,75.2,46.4,30.68,North,350,0.0,4.0,36,0.00,,,0.00,663.00,VWS V14.00,2013-08-16 17:21:00,
2013-08-16 11:26:00,75.7,45.4,30.68,North,350,0.0,3.0,34,0.00,,,0.00,659.00,VWS V14.00,2013-08-16 17:26:00,
2013-08-16 11:31:00,76.2,45.8,30.68,North,350,0.0,3.0,34,0.00,,,0.00,673.00,VWS V14.00,2013-08-16 17:31:00,
2013-08-16 11:36:00,76.7,46.2,30.67,North,351,0.0,4.0,34,0.00,,,0.00,680.00,VWS V14.00,2013-08-16 17:36:00,
2013-08-16 11:41:00,77.1,46.6,30.67,NNW,347,0.0,3.0,34,0.00,,,0.00,698.00,VWS V14.00,2013-08-16 17:41:00,
2013-08-16 11:46:00,77.3,46.0,30.67,NNW,344,2.0,5.0,33,0.00,,,0.00,714.00,VWS V14.00,2013-08-16 17:46:00,
2013-08-16 11:51:00,77.4,46.1,30.67,NNW,343,0.0,5.0,33,0.00,,,0.00,726.00,VWS V14.00,2013-08-16 17:51:00,
2013-08-16 11:56:00,77.5,45.3,30.66,NNW,344,0.0,4.0,32,0.00,,,0.00,717.00,VWS V14.00,2013-08-16 17:56:00,
2013-08-16 12:01:00,77.8,44.8,30.66,NNW,342,1.0,4.0,31,0.00,,,0.00,765.00,VWS V14.00,2013-08-16 18:01:00,
2013-08-16 12:06:00,78.1,46.7,30.66,NNW,341,0.0,4.0,33,0.00,,,0.00,582.00,VWS V14.00,2013-08-16 18:06:00,
2013-08-16 12:11:00,78.0,48.2,30.66,NNW,345,0.0,5.0,35,0.00,,,0.00,737.00,VWS V14.00,2013-08-16 18:11:00,
2013-08-16 12:16:00,78.3,47.7,30.65,NNW,345,0.0,5.0,34,0.00,,,0.00,802.00,VWS V14.00,2013-08-16 18:16:00,
2013-08-16 12:21:00,78.4,46.1,30.66,NNW,344,0.0,5.0,32,0.00,,,0.00,817.00,VWS V14.00,2013-08-16 18:21:00,
2013-08-16 12:26:00,78.8,46.5,30.65,NNW,344,0.0,5.0,32,0.00,,,0.00,770.00,VWS V14.00,2013-08-16 18:26:00,
2013-08-16 12:31:00,79.2,46.0,30.65,NNW,342,0.0,5.0,31,0.00,,,0.00,784.00,VWS V14.00,2013-08-16 18:31:00,
2013-08-16 12:36:00,79.3,47.7,30.65,NNW,344,0.0,5.0,33,0.00,,,0.00,810.00,VWS V14.00,2013-08-16 18:36:00,
2013-08-16 12:41:00,79.7,48.1,30.64,NNW,346,0.0,4.0,33,0.00,,,0.00,800.00,VWS V14.00,2013-08-16 18:41:00,
2013-08-16 12:46:00,80.2,46.0,30.64,NNW,346,0.0,4.0,30,0.00,,,0.00,803.00,VWS V14.00,2013-08-16 18:46:00,
2013-08-16 12:51:00,80.5,45.3,30.64,NNW,347,2.0,4.0,29,0.00,,,0.00,800.00,VWS V14.00,2013-08-16 18:51:00,
2013-08-16 12:56:00,81.0,46.7,30.63,NNW,340,0.0,4.0,30,0.00,,,0.00,807.00,VWS V14.00,2013-08-16 18:56:00,
2013-08-16 13:01:00,81.4,47.0,30.63,NNW,340,3.0,4.0,30,0.00,,,0.00,795.00,VWS V14.00,2013-08-16 19:01:00,
2013-08-16 13:06:00,81.8,49.1,30.62,NNW,337,1.0,4.0,32,0.00,,,0.00,714.00,VWS V14.00,2013-08-16 19:06:00,
2013-08-16 13:11:00,82.0,47.5,30.63,NNW,334,0.0,5.0,30,0.00,,,0.00,680.00,VWS V14.00,2013-08-16 19:11:00,
2013-08-16 13:16:00,82.1,47.6,30.63,NNW,338,0.0,6.0,30,0.00,,,0.00,784.00,VWS V14.00,2013-08-16 19:16:00,
2013-08-16 13:21:00,82.3,48.7,30.63,NNW,336,0.0,6.0,31,0.00,,,0.00,715.00,VWS V14.00,2013-08-16 19:21:00,
2013-08-16 13:26:00,82.5,47.1,30.62,NNW,342,0.0,6.0,29,0.00,,,0.00,812.00,VWS V14.00,2013-08-16 19:26:00,
2013-08-16 13:31:00,82.9,47.4,30.62,NNW,333,0.0,6.0,29,0.00,,,0.00,788.00,VWS V14.00,2013-08-16 19:31:00,
2013-08-16 13:36:00,83.2,47.7,30.62,NNW,342,0.0,6.0,29,0.00,,,0.00,786.00,VWS V14.00,2013-08-16 19:36:00,
2013-08-16 13:41:00,83.4,48.8,30.61,NNW,346,2.0,6.0,30,0.00,,,0.00,768.00,VWS V14.00,2013-08-16 19:41:00,
2013-08-16 13:46:00,83.6,48.9,30.62,NNW,333,0.0,6.0,30,0.00,,,0.00,768.00,VWS V14.00,2013-08-16 19:46:00,
2013-08-16 13:51:00,83.8,48.2,30.62,NNW,345,2.0,6.0,29,0.00,,,0.00,758.00,VWS V14.00,2013-08-16 19:51:00,
2013-08-16 13:56:00,84.0,48.4,30.61,NNW,336,0.0,4.0,29,0.00,,,0.00,751.00,VWS V14.00,2013-08-16 19:56:00,
2013-08-16 14:01:00,84.2,49.4,30.61,NNW,344,1.0,5.0,30,0.00,,,0.00,751.00,VWS V14.00,2013-08-16 20:01:00,
2013-08-16 14:06:00,84.7,49.9,30.60,NNW,345,0.0,5.0,30,0.00,,,0.00,763.00,VWS V14.00,2013-08-16 20:06:00,
2013-08-16 14:11:00,85.3,46.6,30.61,NNW,345,0.0,4.0,26,0.00,,,0.00,758.00,VWS V14.00,2013-08-16 20:11:00,
2013-08-16 14:16:00,85.9,49.0,30.60,NNW,345,0.0,4.0,28,0.00,,,0.00,759.00,VWS V14.00,2013-08-16 20:16:00,
2013-08-16 14:21:00,86.4,47.5,30.60,NNW,344,0.0,4.0,26,0.00,,,0.00,782.00,VWS V14.00,2013-08-16 20:21:00,
2013-08-16 14:26:00,86.9,47.9,30.60,NNW,340,0.0,4.0,26,0.00,,,0.00,759.00,VWS V14.00,2013-08-16 20:26:00,
2013-08-16 14:31:00,87.2,47.1,30.60,NNW,340,0.0,4.0,25,0.00,,,0.00,772.00,VWS V14.00,2013-08-16 20:31:00,
2013-08-16 14:36:00,87.7,48.6,30.58,NNW,339,0.0,4.0,26,0.00,,,0.00,765.00,VWS V14.00,2013-08-16 20:36:00,
2013-08-16 14:41:00,87.9,49.8,30.58,NNW,336,0.0,3.0,27,0.00,,,0.00,751.00,VWS V14.00,2013-08-16 20:41:00,
2013-08-16 14:46:00,88.0,51.8,30.58,NNW,336,3.0,4.0,29,0.00,,,0.00,737.00,VWS V14.00,2013-08-16 20:46:00,
2013-08-16 14:51:00,87.9,48.8,30.58,NNW,334,0.0,5.0,26,0.00,,,0.00,715.00,VWS V14.00,2013-08-16 20:51:00,
2013-08-16 14:56:00,87.9,51.7,30.57,NNW,342,0.0,3.0,29,0.00,,,0.00,715.00,VWS V14.00,2013-08-16 20:56:00,
2013-08-16 15:01:00,88.1,50.0,30.57,NNW,344,0.0,5.0,27,0.00,,,0.00,707.00,VWS V14.00,2013-08-16 21:01:00,
2013-08-16 15:06:00,88.3,51.1,30.58,NW,326,1.0,6.0,28,0.00,,,0.00,728.00,VWS V14.00,2013-08-16 21:06:00,
2013-08-16 15:11:00,88.1,50.9,30.58,NW,324,0.0,4.0,28,0.00,,,0.00,729.00,VWS V14.00,2013-08-16 21:11:00,
2013-08-16 15:16:00,88.3,50.1,30.58,NW,324,0.0,4.0,27,0.00,,,0.00,737.00,VWS V14.00,2013-08-16 21:16:00,
2013-08-16 15:21:00,88.6,51.4,30.56,NW,323,0.0,4.0,28,0.00,,,0.00,715.00,VWS V14.00,2013-08-16 21:21:00,
2013-08-16 15:26:00,89.0,51.7,30.57,NW,323,1.0,2.0,28,0.00,,,0.00,715.00,VWS V14.00,2013-08-16 21:26:00,
2013-08-16 15:31:00,89.2,51.9,30.56,NNW,342,0.0,4.0,28,0.00,,,0.00,696.00,VWS V14.00,2013-08-16 21:31:00,
2013-08-16 15:36:00,89.6,50.2,30.56,NNW,342,0.0,4.0,26,0.00,,,0.00,698.00,VWS V14.00,2013-08-16 21:36:00,
2013-08-16 15:41:00,90.2,54.6,30.56,NNW,342,0.0,0.0,30,0.00,,,0.00,696.00,VWS V14.00,2013-08-16 21:41:00,
2013-08-16 15:46:00,91.1,57.2,30.55,NNW,342,0.0,2.0,32,0.00,,,0.00,682.00,VWS V14.00,2013-08-16 21:46:00,
2013-08-16 15:51:00,91.9,51.1,30.55,NNW,342,0.0,2.0,25,0.00,,,0.00,675.00,VWS V14.00,2013-08-16 21:51:00,
2013-08-16 15:56:00,92.9,49.7,30.54,NNW,342,0.0,0.0,23,0.00,,,0.00,636.00,VWS V14.00,2013-08-16 21:56:00,
2013-08-16 16:01:00,93.8,49.2,30.53,NNW,342,4.0,5.0,22,0.00,,,0.00,638.00,VWS V14.00,2013-08-16 22:01:00,
2013-08-16 16:06:00,93.8,48.0,30.54,NNW,348,0.0,6.0,21,0.00,,,0.00,649.00,VWS V14.00,2013-08-16 22:06:00,
2013-08-16 16:11:00,93.9,50.5,30.54,NNW,348,0.0,0.0,23,0.00,,,0.00,628.00,VWS V14.00,2013-08-16 22:11:00,
2013-08-16 16:16:00,94.0,52.9,30.54,North,349,0.0,6.0,25,0.00,,,0.00,619.00,VWS V14.00,2013-08-16 22:16:00,
2013-08-16 16:21:00,93.8,48.0,30.54,North,349,2.0,6.0,21,0.00,,,0.00,612.00,VWS V14.00,2013-08-16 22:21:00,
2013-08-16 16:26:00,93.5,51.3,30.53,NNW,346,3.0,6.0,24,0.00,,,0.00,599.00,VWS V14.00,2013-08-16 22:26:00,
2013-08-16 16:31:00,93.4,52.3,30.54,North,355,4.0,6.0,25,0.00,,,0.00,603.00,VWS V14.00,2013-08-16 22:31:00,
2013-08-16 16:36:00,93.2,44.9,30.55,North,355,5.0,9.0,19,0.00,,,0.00,591.00,VWS V14.00,2013-08-16 22:36:00,
2013-08-16 16:41:00,93.2,52.2,30.53,North,355,1.0,6.0,25,0.00,,,0.00,578.00,VWS V14.00,2013-08-16 22:41:00,
2013-08-16 16:46:00,93.2,47.5,30.54,North,355,1.0,6.0,21,0.00,,,0.00,554.00,VWS V14.00,2013-08-16 22:46:00,
2013-08-16 16:51:00,93.2,48.7,30.54,North,355,0.0,6.0,22,0.00,,,0.00,529.00,VWS V14.00,2013-08-16 22:51:00,
2013-08-16 16:56:00,93.1,52.1,30.54,North,355,0.0,5.0,25,0.00,,,0.00,508.00,VWS V14.00,2013-08-16 22:56:00,
2013-08-16 17:01:00,93.3,46.3,30.54,NNW,338,0.0,7.0,20,0.00,,,0.00,503.00,VWS V14.00,2013-08-16 23:01:00,
2013-08-16 17:06:00,93.3,50.0,30.54,North,350,2.0,7.0,23,0.00,,,0.00,487.00,VWS V14.00,2013-08-16 23:06:00,
2013-08-16 17:11:00,93.2,47.5,30.53,North,355,6.0,6.0,21,0.00,,,0.00,431.00,VWS V14.00,2013-08-16 23:11:00,
2013-08-16 17:16:00,93.0,48.6,30.53,North,360,0.0,6.0,22,0.00,,,0.00,417.00,VWS V14.00,2013-08-16 23:16:00,
2013-08-16 17:21:00,92.9,51.9,30.53,North,360,0.0,6.0,25,0.00,,,0.00,432.00,VWS V14.00,2013-08-16 23:21:00,
2013-08-16 17:26:00,92.7,45.8,30.52,NNW,334,4.0,11.0,20,0.00,,,0.00,417.00,VWS V14.00,2013-08-16 23:26:00,
2013-08-16 17:31:00,92.7,43.0,30.53,NW,319,1.0,11.0,18,0.00,,,0.00,385.00,VWS V14.00,2013-08-16 23:31:00,
2013-08-16 17:36:00,92.9,49.7,30.52,NNW,347,0.0,11.0,23,0.00,,,0.00,341.00,VWS V14.00,2013-08-16 23:36:00,
2013-08-16 17:41:00,92.6,47.0,30.53,North,360,6.0,6.0,21,0.00,,,0.00,352.00,VWS V14.00,2013-08-16 23:41:00,
2013-08-16 17:46:00,92.3,44.1,30.53,North,355,0.0,7.0,19,0.00,,,0.00,309.00,VWS V14.00,2013-08-16 23:46:00,
2013-08-16 17:51:00,92.1,44.0,30.53,North,355,0.0,7.0,19,0.00,,,0.00,207.00,VWS V14.00,2013-08-16 23:51:00,
2013-08-16 17:56:00,92.0,46.5,30.53,North,355,0.0,0.0,21,0.00,,,0.00,336.00,VWS V14.00,2013-08-16 23:56:00,
2013-08-16 18:01:00,92.0,47.8,30.52,North,355,1.0,1.0,22,0.00,,,0.00,309.00,VWS V14.00,2013-08-17 00:01:00,
2013-08-16 18:06:00,91.8,46.3,30.52,North,5,6.0,8.0,21,0.00,,,0.00,269.00,VWS V14.00,2013-08-17 00:06:00,
2013-08-16 18:11:00,91.3,44.7,30.53,NNW,333,0.0,5.0,20,0.00,,,0.00,239.00,VWS V14.00,2013-08-17 00:11:00,
2013-08-16 18:16:00,91.1,49.3,30.54,NNW,338,0.0,5.0,24,0.00,,,0.00,221.00,VWS V14.00,2013-08-17 00:16:00,
2013-08-16 18:21:00,90.8,46.8,30.54,NW,314,6.0,7.0,22,0.00,,,0.00,146.00,VWS V14.00,2013-08-17 00:21:00,
2013-08-16 18:26:00,90.5,51.0,30.54,NW,307,0.0,4.0,26,0.00,,,0.00,163.00,VWS V14.00,2013-08-17 00:26:00,
2013-08-16 18:31:00,89.7,50.3,30.55,NW,306,0.0,5.0,26,0.00,,,0.00,153.00,VWS V14.00,2013-08-17 00:31:00,
2013-08-16 18:36:00,89.2,49.9,30.54,NW,306,0.0,5.0,26,0.00,,,0.00,125.00,VWS V14.00,2013-08-17 00:36:00,
2013-08-16 18:41:00,88.4,50.2,30.54,NW,306,0.0,1.0,27,0.00,,,0.00,121.00,VWS V14.00,2013-08-17 00:41:00,
2013-08-16 18:46:00,87.8,49.7,30.55,WNW,292,3.0,5.0,27,0.00,,,0.00,121.00,VWS V14.00,2013-08-17 00:46:00,
2013-08-16 18:51:00,87.0,50.0,30.55,WNW,294,0.0,6.0,28,0.00,,,0.00,113.00,VWS V14.00,2013-08-17 00:51:00,
2013-08-16 18:56:00,86.3,50.3,30.56,NW,306,0.0,4.0,29,0.00,,,0.00,111.00,VWS V14.00,2013-08-17 00:56:00,
2013-08-16 19:01:00,85.9,50.0,30.56,NW,313,0.0,4.0,29,0.00,,,0.00,107.00,VWS V14.00,2013-08-17 01:01:00,
2013-08-16 19:06:00,85.6,49.7,30.56,NW,313,0.0,4.0,29,0.00,,,0.00,93.00,VWS V14.00,2013-08-17 01:06:00,
2013-08-16 19:11:00,85.4,49.6,30.55,NW,313,0.0,0.0,29,0.00,,,0.00,84.00,VWS V14.00,2013-08-17 01:11:00,
2013-08-16 19:16:00,85.3,49.5,30.56,NW,313,0.0,4.0,29,0.00,,,0.00,84.00,VWS V14.00,2013-08-17 01:16:00,
2013-08-16 19:21:00,85.1,50.2,30.56,NW,314,0.0,5.0,30,0.00,,,0.00,72.00,VWS V14.00,2013-08-17 01:21:00,
2013-08-16 19:26:00,84.8,50.0,30.56,NW,314,0.0,3.0,30,0.00,,,0.00,69.00,VWS V14.00,2013-08-17 01:26:00,
2013-08-16 19:31:00,84.4,49.6,30.55,NW,325,0.0,4.0,30,0.00,,,0.00,62.00,VWS V14.00,2013-08-17 01:31:00,
2013-08-16 19:36:00,84.2,49.4,30.55,North,5,0.0,4.0,30,0.00,,,0.00,56.00,VWS V14.00,2013-08-17 01:36:00,
2013-08-16 19:41:00,84.0,49.3,30.55,North,5,0.0,1.0,30,0.00,,,0.00,54.00,VWS V14.00,2013-08-17 01:41:00,
2013-08-16 19:46:00,83.9,50.9,30.55,North,360,0.0,3.0,32,0.00,,,0.00,46.00,VWS V14.00,2013-08-17 01:46:00,
2013-08-16 19:51:00,83.6,50.7,30.56,North,360,0.0,3.0,32,0.00,,,0.00,40.00,VWS V14.00,2013-08-17 01:51:00,
2013-08-16 19:56:00,83.4,50.5,30.57,North,360,0.0,1.0,32,0.00,,,0.00,33.00,VWS V14.00,2013-08-17 01:56:00,
2013-08-16 20:01:00,83.0,50.1,30.57,North,360,0.0,1.0,32,0.00,,,0.00,30.00,VWS V14.00,2013-08-17 02:01:00,
2013-08-16 20:06:00,82.7,49.9,30.57,North,360,0.0,2.0,32,0.00,,,0.00,26.00,VWS V14.00,2013-08-17 02:06:00,
2013-08-16 20:11:00,82.4,49.6,30.55,North,360,0.0,0.0,32,0.00,,,0.00,21.00,VWS V14.00,2013-08-17 02:11:00,
2013-08-16 20:16:00,82.1,48.5,30.56,North,360,0.0,1.0,31,0.00,,,0.00,18.00,VWS V14.00,2013-08-17 02:16:00,
2013-08-16 20:21:00,81.9,49.2,30.56,North,360,0.0,1.0,32,0.00,,,0.00,0.00,VWS V14.00,2013-08-17 02:21:00,
2013-08-16 20:26:00,81.7,50.6,30.56,North,360,0.0,0.0,34,0.00,,,0.00,0.00,VWS V14.00,2013-08-17 02:26:00,
2013-08-16 20:31:00,81.4,50.4,30.57,North,360,0.0,0.0,34,0.00,,,0.00,0.00,VWS V14.00,2013-08-17 02:31:00,
2013-08-16 20:36:00,81.0,49.2,30.57,North,360,0.0,0.0,33,0.00,,,0.00,0.00,VWS V14.00,2013-08-17 02:36:00,
2013-08-16 20:41:00,80.5,48.8,30.57,North,360,0.0,1.0,33,0.00,,,0.00,0.00,VWS V14.00,2013-08-17 02:41:00,
2013-08-16 20:46:00,80.1,46.8,30.59,North,360,0.0,1.0,31,0.00,,,0.00,0.00,VWS V14.00,2013-08-17 02:46:00,
2013-08-16 20:51:00,79.7,46.4,30.59,North,360,0.0,1.0,31,0.00,,,0.00,0.00,VWS V14.00,2013-08-17 02:51:00,
2013-08-16 20:56:00,79.3,46.1,30.59,North,360,0.0,0.0,31,0.00,,,0.00,0.00,VWS V14.00,2013-08-17 02:56:00,
2013-08-16 21:01:00,79.1,46.7,30.60,North,360,0.0,2.0,32,0.00,,,0.00,0.00,VWS V14.00,2013-08-17 03:01:00,
2013-08-16 21:06:00,79.0,46.7,30.60,North,360,0.0,2.0,32,0.00,,,0.00,0.00,VWS V14.00,2013-08-17 03:06:00,
2013-08-16 21:11:00,78.8,45.6,30.58,North,360,0.0,1.0,31,0.00,,,0.00,0.00,VWS V14.00,2013-08-17 03:11:00,
2013-08-16 21:16:00,78.7,46.4,30.58,North,360,0.0,1.0,32,0.00,,,0.00,0.00,VWS V14.00,2013-08-17 03:16:00,
2013-08-16 21:21:00,78.7,46.4,30.58,North,360,0.0,1.0,32,0.00,,,0.00,0.00,VWS V14.00,2013-08-17 03:21:00,
2013-08-16 21:26:00,78.7,47.2,30.58,North,360,0.0,0.0,33,0.00,,,0.00,0.00,VWS V14.00,2013-08-17 03:26:00,
2013-08-16 21:31:00,78.5,47.8,30.59,North,360,0.0,0.0,34,0.00,,,0.00,0.00,VWS V14.00,2013-08-17 03:31:00,
2013-08-16 21:36:00,78.2,48.3,30.60,North,360,0.0,0.0,35,0.00,,,0.00,0.00,VWS V14.00,2013-08-17 03:36:00,
2013-08-16 21:41:00,77.9,47.3,30.60,North,360,0.0,1.0,34,0.00,,,0.00,0.00,VWS V14.00,2013-08-17 03:41:00,
2013-08-16 21:46:00,77.7,47.1,30.60,North,360,0.0,1.0,34,0.00,,,0.00,0.00,VWS V14.00,2013-08-17 03:46:00,
2013-08-16 21:51:00,77.5,49.2,30.60,North,360,0.0,1.0,37,0.00,,,0.00,0.00,VWS V14.00,2013-08-17 03:51:00,
2013-08-16 21:56:00,77.1,49.6,30.61,North,360,0.0,0.0,38,0.00,,,0.00,0.00,VWS V14.00,2013-08-17 03:56:00,
2013-08-16 22:01:00,76.7,52.5,30.60,North,360,0.0,0.0,43,0.00,,,0.00,0.00,VWS V14.00,2013-08-17 04:01:00,
2013-08-16 22:06:00,75.4,52.6,30.61,North,360,0.0,1.0,45,0.00,,,0.00,0.00,VWS V14.00,2013-08-17 04:06:00,
2013-08-16 22:11:00,74.4,52.3,30.59,North,360,0.0,1.0,46,0.00,,,0.00,0.00,VWS V14.00,2013-08-17 04:11:00,
2013-08-16 22:16:00,73.2,49.4,30.60,North,360,0.0,1.0,43,0.00,,,0.00,0.00,VWS V14.00,2013-08-17 04:16:00,
2013-08-16 22:21:00,72.1,47.8,30.60,North,360,0.0,1.0,42,0.00,,,0.00,0.00,VWS V14.00,2013-08-17 04:21:00,
2013-08-16 22:26:00,71.8,46.9,30.61,North,360,0.0,0.0,41,0.00,,,0.00,0.00,VWS V14.00,2013-08-17 04:26:00,
2013-08-16 22:31:00,71.9,47.0,30.61,North,360,0.0,1.0,41,0.00,,,0.00,0.00,VWS V14.00,2013-08-17 04:31:00,
2013-08-16 22:36:00,72.0,48.9,30.62,North,360,0.0,1.0,44,0.00,,,0.00,0.00,VWS V14.00,2013-08-17 04:36:00,
2013-08-16 22:41:00,72.0,50.1,30.62,North,360,0.0,0.0,46,0.00,,,0.00,0.00,VWS V14.00,2013-08-17 04:41:00,
2013-08-16 22:46:00,72.2,47.2,30.62,North,360,0.0,0.0,41,0.00,,,0.00,0.00,VWS V14.00,2013-08-17 04:46:00,
2013-08-16 22:51:00,72.4,49.3,30.62,North,360,0.0,0.0,44,0.00,,,0.00,0.00,VWS V14.00,2013-08-17 04:51:00,
2013-08-16 22:56:00,72.5,51.2,30.62,North,360,0.0,0.0,47,0.00,,,0.00,0.00,VWS V14.00,2013-08-17 04:56:00,
2013-08-16 23:01:00,72.5,47.5,30.63,North,360,0.0,2.0,41,0.00,,,0.00,0.00,VWS V14.00,2013-08-17 05:01:00,
2013-08-16 23:06:00,72.8,45.0,30.63,North,360,2.0,2.0,37,0.00,,,0.00,0.00,VWS V14.00,2013-08-17 05:06:00,
2013-08-16 23:11:00,73.7,45.1,30.60,NE,40,0.0,1.0,36,0.00,,,0.00,0.00,VWS V14.00,2013-08-17 05:11:00,
2013-08-16 23:16:00,74.2,45.6,30.61,NE,40,0.0,2.0,36,0.00,,,0.00,0.00,VWS V14.00,2013-08-17 05:16:00,
2013-08-16 23:21:00,74.5,45.8,30.61,NE,40,0.0,2.0,36,0.00,,,0.00,0.00,VWS V14.00,2013-08-17 05:21:00,
2013-08-16 23:26:00,74.9,46.9,30.61,North,9,2.0,3.0,37,0.00,,,0.00,0.00,VWS V14.00,2013-08-17 05:26:00,
2013-08-16 23:31:00,75.3,47.3,30.61,North,9,0.0,3.0,37,0.00,,,0.00,0.00,VWS V14.00,2013-08-17 05:31:00,
2013-08-16 23:36:00,75.3,48.7,30.60,North,9,0.0,3.0,39,0.00,,,0.00,0.00,VWS V14.00,2013-08-17 05:36:00,
2013-08-16 23:41:00,75.2,47.2,30.61,North,9,0.0,0.0,37,0.00,,,0.00,0.00,VWS V14.00,2013-08-17 05:41:00,
2013-08-16 23:46:00,75.0,46.3,30.61,North,9,1.0,1.0,36,0.00,,,0.00,0.00,VWS V14.00,2013-08-17 05:46:00,
2013-08-16 23:51:00,75.0,47.0,30.61,North,9,0.0,1.0,37,0.00,,,0.00,0.00,VWS V14.00,2013-08-17 05:51:00,
2013-08-16 23:56:00,75.0,47.0,30.61,North,9,0.0,3.0,37,0.00,,,0.00,0.00,VWS V14.00,2013-08-17 05:56:00,